createdAt,value
2023-12-24T00:00:37.364Z,7.19
2023-12-24T00:04:43.284Z,7.21
2023-12-24T00:08:46.229Z,7.20
2023-12-24T00:12:49.485Z,7.16
2023-12-24T00:16:52.664Z,7.18
2023-12-24T00:20:57.575Z,7.18
2023-12-24T00:25:00.485Z,7.20
2023-12-24T00:29:03.722Z,7.24
2023-12-24T00:33:06.912Z,7.29
2023-12-24T00:37:12.041Z,7.30
2023-12-24T00:41:16.155Z,7.30
2023-12-24T00:45:19.232Z,7.29
2023-12-24T00:49:22.169Z,7.29
2023-12-24T00:53:27.032Z,7.27
2023-12-24T00:57:30.285Z,7.27
2023-12-24T01:01:33.190Z,7.24
2023-12-24T01:05:36.722Z,7.24
2023-12-24T01:09:41.547Z,7.24
2023-12-24T01:13:44.551Z,7.25
2023-12-24T01:17:49.109Z,7.23
2023-12-24T01:21:57.298Z,7.23
2023-12-24T01:26:01.931Z,7.23
2023-12-24T01:30:07.264Z,7.20
2023-12-24T01:34:10.451Z,7.09
2023-12-24T01:38:13.477Z,6.87
2023-12-24T01:42:17.912Z,6.66
2023-12-24T01:46:22.861Z,6.55
2023-12-24T01:50:26.945Z,6.50
2023-12-24T01:54:32.884Z,6.44
2023-12-24T01:58:37.519Z,6.40
2023-12-24T02:02:41.165Z,6.39
2023-12-24T02:06:44.224Z,6.40
2023-12-24T02:10:47.540Z,6.40
2023-12-24T02:14:51.892Z,6.46
2023-12-24T02:18:54.959Z,6.46
2023-12-24T02:22:59.630Z,6.44
2023-12-24T02:27:10.447Z,6.46
2023-12-24T02:31:16.578Z,6.46
2023-12-24T02:35:20.644Z,6.51
2023-12-24T02:39:25.056Z,6.59
2023-12-24T02:43:27.989Z,6.64
2023-12-24T02:47:31.106Z,6.64
2023-12-24T02:51:34.066Z,6.63
2023-12-24T02:55:38.472Z,6.65
2023-12-24T02:59:41.524Z,6.68
2023-12-24T03:03:44.816Z,6.73
2023-12-24T03:07:47.801Z,6.78
2023-12-24T03:11:52.690Z,6.83
2023-12-24T03:15:56.070Z,6.87
2023-12-24T03:19:59.263Z,6.91
2023-12-24T03:24:02.242Z,6.96
2023-12-24T03:28:07.524Z,7.03
2023-12-24T03:32:10.879Z,7.07
2023-12-24T03:36:13.955Z,7.06
2023-12-24T03:40:17.549Z,7.10
2023-12-24T03:44:24.714Z,7.12
2023-12-24T03:48:27.829Z,7.18
2023-12-24T03:52:30.889Z,7.21
2023-12-24T03:56:33.974Z,7.23
2023-12-24T04:00:38.612Z,7.27
2023-12-24T04:04:46.269Z,7.28
2023-12-24T04:08:49.213Z,7.28
2023-12-24T04:12:52.841Z,7.30
2023-12-24T04:16:57.508Z,7.34
2023-12-24T04:21:00.537Z,7.35
2023-12-24T04:25:03.880Z,7.36
2023-12-24T04:29:06.945Z,7.35
2023-12-24T04:33:14.158Z,7.38
2023-12-24T04:37:17.231Z,7.40
2023-12-24T04:41:21.134Z,7.41
2023-12-24T04:45:24.429Z,7.43
2023-12-24T04:49:29.682Z,7.48
2023-12-24T04:53:32.875Z,7.50
2023-12-24T04:57:35.932Z,7.51
2023-12-24T05:01:38.974Z,7.52
2023-12-24T05:05:43.488Z,7.54
2023-12-24T05:09:47.094Z,7.58
2023-12-24T05:13:50.179Z,7.59
2023-12-24T05:17:53.235Z,7.61
2023-12-24T05:21:57.915Z,7.61
2023-12-24T05:26:01.255Z,7.62
2023-12-24T05:30:04.747Z,7.64
2023-12-24T05:34:07.932Z,7.64
2023-12-24T05:38:12.286Z,7.68
2023-12-24T05:42:15.293Z,7.69
2023-12-24T05:46:18.512Z,7.68
2023-12-24T05:50:23.168Z,7.71
2023-12-24T05:54:28.594Z,7.70
2023-12-24T05:58:31.599Z,7.72
2023-12-24T06:02:34.542Z,7.70
2023-12-24T06:06:41.960Z,7.69
2023-12-24T06:10:46.563Z,7.69
2023-12-24T06:14:50.649Z,7.68
2023-12-24T06:18:53.748Z,7.69
2023-12-24T06:22:56.725Z,7.69
2023-12-24T06:27:01.403Z,7.70
2023-12-24T06:31:04.796Z,7.69
2023-12-24T06:35:08.104Z,7.69
2023-12-24T06:39:11.089Z,7.70
2023-12-24T06:43:15.379Z,7.70
2023-12-24T06:47:18.367Z,7.71
2023-12-24T06:51:21.327Z,7.70
2023-12-24T06:55:24.254Z,7.70
2023-12-24T06:59:28.587Z,7.69
2023-12-24T07:03:31.665Z,7.69
2023-12-24T07:07:35.031Z,7.69
2023-12-24T07:11:38.052Z,7.71
2023-12-24T07:15:43.680Z,7.71
2023-12-24T07:19:46.722Z,7.71
2023-12-24T07:23:49.744Z,7.70
2023-12-24T07:27:52.713Z,7.70
2023-12-24T07:31:57.034Z,7.71
2023-12-24T07:35:59.976Z,7.74
2023-12-24T07:40:03.070Z,7.78
2023-12-24T07:44:06.297Z,7.83
2023-12-24T07:48:10.799Z,7.87
2023-12-24T07:52:13.756Z,7.92
2023-12-24T07:56:16.701Z,7.96
2023-12-24T08:00:20.089Z,7.98
2023-12-24T08:04:24.389Z,8.06
2023-12-24T08:08:27.390Z,8.20
2023-12-24T08:12:30.457Z,8.48
2023-12-24T08:16:33.887Z,8.72
2023-12-24T08:20:38.277Z,8.88
2023-12-24T08:24:41.321Z,9.00
2023-12-24T08:28:44.291Z,9.09
2023-12-24T08:32:48.016Z,9.22
2023-12-24T08:36:52.592Z,9.34
2023-12-24T08:40:55.655Z,9.49
2023-12-24T08:44:58.563Z,9.61
2023-12-24T08:49:01.612Z,9.65
2023-12-24T08:53:06.203Z,9.81
2023-12-24T08:57:09.405Z,9.97
2023-12-24T09:01:12.319Z,10.24
2023-12-24T09:05:15.517Z,10.30
2023-12-24T09:09:19.940Z,10.04
2023-12-24T09:13:23.324Z,9.83
2023-12-24T09:17:26.576Z,9.80
2023-12-24T09:21:29.573Z,9.99
2023-12-24T09:25:33.945Z,10.23
2023-12-24T09:29:36.880Z,10.18
2023-12-24T09:33:40.010Z,9.94
2023-12-24T09:37:43.884Z,9.76
2023-12-24T09:41:51.068Z,9.68
2023-12-24T09:45:54.089Z,9.61
2023-12-24T09:49:59.452Z,9.64
2023-12-24T09:54:03.193Z,9.64
2023-12-24T09:58:07.600Z,9.70
2023-12-24T10:02:10.986Z,9.77
2023-12-24T10:06:15.894Z,9.80
2023-12-24T10:10:41.286Z,9.79
2023-12-24T10:14:57.374Z,9.65
2023-12-24T10:19:01.109Z,9.47
2023-12-24T10:23:08.712Z,9.32
2023-12-24T10:27:17.313Z,9.11
2023-12-24T10:31:26.822Z,8.90
2023-12-24T10:35:30.717Z,8.69
2023-12-24T10:39:36.605Z,8.57
2023-12-24T10:43:51.694Z,8.50
2023-12-24T10:58:54.494Z,8.30
2023-12-24T11:03:04.923Z,8.28
2023-12-24T11:07:09.175Z,8.26
2023-12-24T11:11:16.183Z,8.28
2023-12-24T11:15:47.399Z,8.28
2023-12-24T11:19:55.364Z,8.27
2023-12-24T11:24:27.943Z,8.26
2023-12-24T11:28:45.168Z,8.21
2023-12-24T11:32:50.754Z,8.18
2023-12-24T11:37:04.494Z,8.12
2023-12-24T11:41:08.472Z,8.09
2023-12-24T11:45:20.599Z,8.08
2023-12-24T11:49:25.124Z,8.09
2023-12-24T11:53:28.333Z,8.10
2023-12-24T11:57:31.740Z,8.12
2023-12-24T12:01:39.426Z,8.08
2023-12-24T12:05:43.946Z,8.05
2023-12-24T12:09:47.078Z,8.04
2023-12-24T12:13:50.294Z,8.04
2023-12-24T12:17:53.478Z,8.03
2023-12-24T12:21:58.020Z,8.01
2023-12-24T12:26:01.100Z,8.02
2023-12-24T12:30:04.541Z,8.03
2023-12-24T12:34:07.635Z,7.98
2023-12-24T12:38:13.269Z,7.93
2023-12-24T12:42:35.522Z,7.87
2023-12-24T12:46:49.247Z,7.86
2023-12-24T12:50:52.530Z,7.88
2023-12-24T12:55:04.544Z,7.91
2023-12-24T12:59:07.656Z,7.93
2023-12-24T13:03:10.874Z,7.94
2023-12-24T13:07:13.977Z,7.93
2023-12-24T13:11:21.611Z,7.91
2023-12-24T13:15:25.437Z,7.92
2023-12-24T13:19:30.039Z,7.91
2023-12-24T13:23:33.991Z,7.92
2023-12-24T13:27:39.163Z,7.94
2023-12-24T13:31:42.169Z,7.94
2023-12-24T13:35:46.137Z,7.95
2023-12-24T13:39:49.346Z,8.03
2023-12-24T13:43:53.608Z,8.11
2023-12-24T13:47:56.766Z,8.25
2023-12-24T13:51:59.787Z,8.41
2023-12-24T13:56:03.510Z,8.51
2023-12-24T14:00:09.661Z,8.56
2023-12-24T14:04:13.418Z,8.64
2023-12-24T14:08:16.906Z,8.69
2023-12-24T14:12:19.879Z,8.70
2023-12-24T14:16:24.239Z,8.73
2023-12-24T14:20:27.597Z,8.80
2023-12-24T14:24:30.688Z,8.77
2023-12-24T14:28:33.594Z,8.76
2023-12-24T14:32:38.019Z,8.63
2023-12-24T14:36:41.097Z,8.61
2023-12-24T14:40:44.124Z,8.53
2023-12-24T14:44:47.266Z,8.49
2023-12-24T14:48:51.648Z,8.47
2023-12-24T14:52:55.980Z,8.44
2023-12-24T14:56:59.611Z,8.42
2023-12-24T15:01:03.056Z,8.39
2023-12-24T15:05:08.889Z,8.35
2023-12-24T15:09:13.060Z,8.26
2023-12-24T15:13:16.021Z,8.15
2023-12-24T15:17:19.128Z,8.10
2023-12-24T15:21:23.485Z,8.08
2023-12-24T15:25:27.517Z,8.02
2023-12-24T15:29:30.621Z,8.01
2023-12-24T15:33:36.156Z,7.95
2023-12-24T15:37:41.324Z,7.95
2023-12-24T15:41:44.331Z,7.94
2023-12-24T15:45:47.353Z,7.92
2023-12-24T15:49:52.937Z,7.88
2023-12-24T15:53:57.250Z,7.90
2023-12-24T15:58:00.185Z,7.86
2023-12-24T16:02:03.069Z,7.85
2023-12-24T16:06:07.111Z,7.84
2023-12-24T16:10:11.619Z,7.84
2023-12-24T16:14:14.651Z,7.82
2023-12-24T16:18:17.801Z,7.83
2023-12-24T16:22:20.806Z,7.85
2023-12-24T16:26:25.161Z,7.83
2023-12-24T16:30:28.086Z,7.85
2023-12-24T16:34:31.157Z,7.84
2023-12-24T16:38:34.848Z,7.81
2023-12-24T16:42:39.921Z,7.83
2023-12-24T16:46:42.873Z,7.79
2023-12-24T16:50:45.892Z,7.78
2023-12-24T16:54:48.849Z,7.80
2023-12-24T16:58:57.738Z,7.82
2023-12-24T17:03:00.747Z,7.82
2023-12-24T17:07:03.772Z,7.83
2023-12-24T17:11:07.431Z,7.84
2023-12-24T17:15:11.941Z,7.90
2023-12-24T17:19:41.096Z,8.17
2023-12-24T17:23:44.384Z,8.69
2023-12-24T17:27:49.755Z,9.29
2023-12-24T17:31:54.088Z,9.61
2023-12-24T17:35:56.991Z,9.59
2023-12-24T17:39:59.903Z,9.49
2023-12-24T17:44:03.058Z,9.52
2023-12-24T17:48:13.919Z,9.60
2023-12-24T17:52:22.675Z,9.56
2023-12-24T17:56:25.718Z,9.36
2023-12-24T18:00:29.081Z,9.16
2023-12-24T18:04:33.371Z,8.87
2023-12-24T18:08:36.335Z,8.70
2023-12-24T18:12:39.279Z,8.55
2023-12-24T18:16:42.423Z,8.45
2023-12-24T18:20:46.786Z,8.38
2023-12-24T18:24:49.746Z,8.28
2023-12-24T18:28:53.169Z,8.21
2023-12-24T18:32:56.483Z,8.16
2023-12-24T18:37:01.074Z,8.15
2023-12-24T18:41:03.997Z,8.12
2023-12-24T18:45:08.011Z,8.11
2023-12-24T18:49:11.044Z,8.11
2023-12-24T18:53:15.477Z,8.11
2023-12-24T18:57:18.452Z,8.07
2023-12-24T19:01:21.402Z,8.03
2023-12-24T19:05:24.345Z,7.97
2023-12-24T19:09:28.697Z,7.92
2023-12-24T19:13:31.677Z,7.89
2023-12-24T19:17:34.875Z,7.88
2023-12-24T19:21:37.984Z,7.87
2023-12-24T19:25:42.401Z,7.87
2023-12-24T19:29:49.308Z,7.84
2023-12-24T19:33:52.321Z,7.85
2023-12-24T19:37:55.367Z,7.86
2023-12-24T19:41:59.681Z,7.89
2023-12-24T19:46:04.812Z,7.90
2023-12-24T19:50:08.304Z,7.89
2023-12-24T19:54:12.120Z,7.88
2023-12-24T19:58:16.537Z,7.85
2023-12-24T20:02:19.432Z,7.84
2023-12-24T20:06:22.494Z,7.82
2023-12-24T20:10:25.498Z,7.79
2023-12-24T20:14:30.056Z,7.79
2023-12-24T20:18:33.113Z,7.78
2023-12-24T20:22:36.168Z,7.79
2023-12-24T20:26:40.622Z,7.79
2023-12-24T20:30:45.107Z,7.80
2023-12-24T20:34:49.480Z,7.81
2023-12-24T20:38:52.536Z,7.82
2023-12-24T20:42:55.832Z,7.82
2023-12-24T20:47:00.208Z,7.82
2023-12-24T20:51:04.183Z,7.84
2023-12-24T20:55:08.849Z,7.84
2023-12-24T20:59:12.167Z,7.86
2023-12-24T21:03:17.619Z,7.85
2023-12-24T21:07:20.625Z,7.85
2023-12-24T21:11:23.671Z,7.83
2023-12-24T21:15:26.886Z,7.82
2023-12-24T21:19:31.236Z,7.84
2023-12-24T21:23:34.267Z,7.81
2023-12-24T21:27:38.446Z,7.80
2023-12-24T21:31:41.401Z,7.81
2023-12-24T21:35:45.776Z,7.77
2023-12-24T21:39:48.783Z,7.72
2023-12-24T21:43:52.575Z,7.68
2023-12-24T21:47:55.868Z,7.75
2023-12-24T21:52:00.488Z,7.68
2023-12-24T21:56:04.216Z,7.69
2023-12-24T22:00:09.027Z,7.78
2023-12-24T22:04:12.150Z,7.84
2023-12-24T22:08:16.513Z,8.13
2023-12-24T22:12:25.079Z,8.31
2023-12-24T22:16:28.909Z,8.24
2023-12-24T22:20:31.925Z,8.16
2023-12-24T22:24:36.194Z,8.31
2023-12-24T22:28:40.293Z,8.51
2023-12-24T22:32:43.291Z,8.67
2023-12-24T22:36:46.319Z,8.70
2023-12-24T22:40:50.612Z,8.69
2023-12-24T22:44:53.629Z,8.70
2023-12-24T22:48:56.773Z,8.85
2023-12-24T22:53:02.100Z,9.16
2023-12-24T22:57:06.816Z,9.31
2023-12-24T23:01:10.482Z,9.28
2023-12-24T23:05:14.147Z,9.44
2023-12-24T23:09:17.459Z,9.66
2023-12-24T23:13:22.731Z,9.64
2023-12-24T23:17:25.727Z,9.61
2023-12-24T23:21:28.739Z,9.57
2023-12-24T23:25:31.653Z,9.57
2023-12-24T23:29:36.065Z,9.62
2023-12-24T23:33:39.092Z,9.72
2023-12-24T23:37:42.136Z,9.73
2023-12-24T23:41:45.099Z,9.70
2023-12-24T23:45:49.450Z,9.69
2023-12-24T23:49:52.496Z,9.64
2023-12-24T23:53:56.307Z,9.59
2023-12-24T23:57:59.330Z,9.57
